sensor_id;sensor_type;location;lat;lon;timestamp;pressure;altitude;pressure_sealevel;temperature;humidity
85304;BME280;75708;47.930;13.782;2024-03-23T00:53:53;95576.53;;;10.81;60.78
85304;BME280;75708;47.930;13.782;2024-03-23T00:56:19;95567.47;;;10.92;60.71
85304;BME280;75708;47.930;13.782;2024-03-23T00:58:45;95566.41;;;10.93;59.57
85304;BME280;75708;47.930;13.782;2024-03-23T01:01:11;95562.13;;;10.92;58.97
85304;BME280;75708;47.930;13.782;2024-03-23T01:03:36;95561.34;;;11.02;59.01
85304;BME280;75708;47.930;13.782;2024-03-23T01:06:03;95557.59;;;10.92;59.59
85304;BME280;75708;47.930;13.782;2024-03-23T01:08:29;95561.88;;;10.88;59.86
85304;BME280;75708;47.930;13.782;2024-03-23T01:11:00;95558.34;;;10.83;59.71
85304;BME280;75708;47.930;13.782;2024-03-23T01:13:27;95561.84;;;10.78;60.43
85304;BME280;75708;47.930;13.782;2024-03-23T01:15:54;95566.88;;;10.70;60.61
85304;BME280;75708;47.930;13.782;2024-03-23T01:18:21;95566.59;;;10.66;59.85
85304;BME280;75708;47.930;13.782;2024-03-23T01:20:47;95548.25;;;10.90;58.27
85304;BME280;75708;47.930;13.782;2024-03-23T01:23:13;95548.53;;;11.04;57.94
85304;BME280;75708;47.930;13.782;2024-03-23T01:25:39;95547.75;;;11.13;56.75
85304;BME280;75708;47.930;13.782;2024-03-23T01:28:05;95547.00;;;11.33;55.15
85304;BME280;75708;47.930;13.782;2024-03-23T01:30:36;95532.00;;;11.57;52.25
85304;BME280;75708;47.930;13.782;2024-03-23T01:33:02;95538.44;;;11.66;53.57
85304;BME280;75708;47.930;13.782;2024-03-23T01:35:28;95537.34;;;11.52;54.34
85304;BME280;75708;47.930;13.782;2024-03-23T01:37:54;95542.44;;;11.34;57.01
85304;BME280;75708;47.930;13.782;2024-03-23T01:40:20;95548.81;;;11.17;57.91
85304;BME280;75708;47.930;13.782;2024-03-23T01:42:56;95549.81;;;10.81;59.66
85304;BME280;75708;47.930;13.782;2024-03-23T01:45:22;95542.78;;;10.60;60.67
85304;BME280;75708;47.930;13.782;2024-03-23T01:47:50;95542.81;;;10.65;60.98
85304;BME280;75708;47.930;13.782;2024-03-23T01:50:17;95530.47;;;10.48;61.95
85304;BME280;75708;47.930;13.782;2024-03-23T01:52:42;95527.28;;;10.56;61.77
85304;BME280;75708;47.930;13.782;2024-03-23T01:55:08;95532.38;;;10.53;62.52
85304;BME280;75708;47.930;13.782;2024-03-23T01:57:34;95532.31;;;10.48;62.86
85304;BME280;75708;47.930;13.782;2024-03-23T02:00:00;95530.75;;;10.57;61.33
85304;BME280;75708;47.930;13.782;2024-03-23T02:02:25;95521.09;;;10.41;61.73
85304;BME280;75708;47.930;13.782;2024-03-23T02:04:51;95519.78;;;10.43;61.62
85304;BME280;75708;47.930;13.782;2024-03-23T02:07:17;95513.69;;;10.58;61.06
85304;BME280;75708;47.930;13.782;2024-03-23T02:09:43;95516.03;;;10.44;62.74
85304;BME280;75708;47.930;13.782;2024-03-23T02:12:09;95510.34;;;10.26;63.49
85304;BME280;75708;47.930;13.782;2024-03-23T02:14:35;95505.28;;;10.29;62.95
85304;BME280;75708;47.930;13.782;2024-03-23T02:17:01;95506.41;;;10.43;60.67
85304;BME280;75708;47.930;13.782;2024-03-23T02:19:27;95500.06;;;10.65;59.50
85304;BME280;75708;47.930;13.782;2024-03-23T02:21:52;95497.47;;;10.80;57.96
85304;BME280;75708;47.930;13.782;2024-03-23T02:24:18;95502.03;;;10.94;57.09
85304;BME280;75708;47.930;13.782;2024-03-23T02:26:43;95505.50;;;11.10;56.29
85304;BME280;75708;47.930;13.782;2024-03-23T02:29:09;95500.16;;;10.95;56.67
85304;BME280;75708;47.930;13.782;2024-03-23T02:31:35;95489.22;;;11.22;55.25
85304;BME280;75708;47.930;13.782;2024-03-23T02:34:01;95487.59;;;11.56;53.64
85304;BME280;75708;47.930;13.782;2024-03-23T02:36:27;95480.41;;;11.77;51.70
85304;BME280;75708;47.930;13.782;2024-03-23T02:38:53;95479.03;;;11.85;51.43
85304;BME280;75708;47.930;13.782;2024-03-23T02:41:19;95479.34;;;11.78;52.42
85304;BME280;75708;47.930;13.782;2024-03-23T02:43:51;95477.94;;;11.91;51.24
85304;BME280;75708;47.930;13.782;2024-03-23T02:46:16;95478.53;;;11.47;55.41
85304;BME280;75708;47.930;13.782;2024-03-23T02:48:42;95469.16;;;10.94;57.59
85304;BME280;75708;47.930;13.782;2024-03-23T02:51:08;95468.66;;;11.07;57.47
85304;BME280;75708;47.930;13.782;2024-03-23T02:53:34;95469.19;;;10.99;57.21
85304;BME280;75708;47.930;13.782;2024-03-23T02:56:00;95458.22;;;11.06;56.68
85304;BME280;75708;47.930;13.782;2024-03-23T02:58:26;95459.28;;;11.15;54.41
85304;BME280;75708;47.930;13.782;2024-03-23T03:00:52;95457.41;;;10.90;57.35
85304;BME280;75708;47.930;13.782;2024-03-23T03:03:17;95461.81;;;10.34;59.97
85304;BME280;75708;47.930;13.782;2024-03-23T03:05:43;95454.56;;;10.19;59.57
85304;BME280;75708;47.930;13.782;2024-03-23T03:08:09;95461.44;;;10.15;59.46
85304;BME280;75708;47.930;13.782;2024-03-23T03:10:35;95459.41;;;9.85;62.52
85304;BME280;75708;47.930;13.782;2024-03-23T03:13:02;95457.59;;;9.96;61.94
85304;BME280;75708;47.930;13.782;2024-03-23T03:15:28;95458.81;;;9.73;62.83
85304;BME280;75708;47.930;13.782;2024-03-23T03:17:53;95461.25;;;9.79;63.37
85304;BME280;75708;47.930;13.782;2024-03-23T03:20:19;95457.50;;;9.75;62.61
85304;BME280;75708;47.930;13.782;2024-03-23T03:22:47;95457.81;;;9.84;61.79
85304;BME280;75708;47.930;13.782;2024-03-23T03:25:13;95447.13;;;9.79;62.86
85304;BME280;75708;47.930;13.782;2024-03-23T03:27:39;95446.03;;;9.75;62.15
85304;BME280;75708;47.930;13.782;2024-03-23T03:30:05;95439.47;;;9.93;60.58
85304;BME280;75708;47.930;13.782;2024-03-23T03:32:33;95428.06;;;10.12;59.88
85304;BME280;75708;47.930;13.782;2024-03-23T03:34:58;95426.56;;;10.27;59.31
85304;BME280;75708;47.930;13.782;2024-03-23T03:37:24;95433.19;;;10.19;60.47
85304;BME280;75708;47.930;13.782;2024-03-23T03:39:50;95420.03;;;10.02;60.94
85304;BME280;75708;47.930;13.782;2024-03-23T03:42:16;95420.84;;;10.08;60.30
85304;BME280;75708;47.930;13.782;2024-03-23T03:44:42;95417.38;;;10.02;60.57
85304;BME280;75708;47.930;13.782;2024-03-23T03:47:08;95412.50;;;9.94;60.85
85304;BME280;75708;47.930;13.782;2024-03-23T03:49:34;95417.63;;;10.01;60.77
85304;BME280;75708;47.930;13.782;2024-03-23T03:52:00;95419.75;;;9.99;60.57
85304;BME280;75708;47.930;13.782;2024-03-23T03:54:27;95424.81;;;10.05;60.63
85304;BME280;75708;47.930;13.782;2024-03-23T03:56:53;95411.13;;;9.87;61.23
85304;BME280;75708;47.930;13.782;2024-03-23T03:59:18;95390.66;;;9.92;60.77
85304;BME280;75708;47.930;13.782;2024-03-23T04:01:45;95406.16;;;10.05;60.72
85304;BME280;75708;47.930;13.782;2024-03-23T04:04:11;95420.34;;;10.16;59.83
85304;BME280;75708;47.930;13.782;2024-03-23T04:06:37;95407.72;;;9.96;61.33
85304;BME280;75708;47.930;13.782;2024-03-23T04:09:02;95403.69;;;9.89;61.61
85304;BME280;75708;47.930;13.782;2024-03-23T04:11:28;95410.31;;;9.76;62.38
85304;BME280;75708;47.930;13.782;2024-03-23T04:13:54;95403.31;;;9.70;62.66
85304;BME280;75708;47.930;13.782;2024-03-23T04:16:31;95399.66;;;9.76;61.35
85304;BME280;75708;47.930;13.782;2024-03-23T04:18:58;95404.44;;;9.79;61.58
85304;BME280;75708;47.930;13.782;2024-03-23T04:21:24;95394.22;;;9.61;62.60
85304;BME280;75708;47.930;13.782;2024-03-23T04:23:50;95380.00;;;9.45;63.15
85304;BME280;75708;47.930;13.782;2024-03-23T04:26:16;95394.97;;;9.51;62.56
85304;BME280;75708;47.930;13.782;2024-03-23T04:28:42;95394.44;;;9.49;63.46
85304;BME280;75708;47.930;13.782;2024-03-23T04:31:08;95389.09;;;9.49;63.08
85304;BME280;75708;47.930;13.782;2024-03-23T04:33:34;95390.66;;;9.45;63.83
85304;BME280;75708;47.930;13.782;2024-03-23T04:36:00;95389.47;;;9.21;64.92
85304;BME280;75708;47.930;13.782;2024-03-23T04:38:25;95396.97;;;9.29;63.65
85304;BME280;75708;47.930;13.782;2024-03-23T04:40:58;95396.94;;;9.24;64.50
85304;BME280;75708;47.930;13.782;2024-03-23T04:43:26;95395.88;;;9.25;64.46
85304;BME280;75708;47.930;13.782;2024-03-23T04:45:52;95405.38;;;9.11;64.99
85304;BME280;75708;47.930;13.782;2024-03-23T04:48:21;95396.56;;;9.05;64.99
85304;BME280;75708;47.930;13.782;2024-03-23T04:50:48;95391.16;;;8.95;65.68
85304;BME280;75708;47.930;13.782;2024-03-23T04:53:15;95388.16;;;8.86;65.78
85304;BME280;75708;47.930;13.782;2024-03-23T04:55:42;95382.78;;;9.18;63.92
85304;BME280;75708;47.930;13.782;2024-03-23T04:58:07;95391.06;;;9.22;64.11
85304;BME280;75708;47.930;13.782;2024-03-23T05:00:33;95381.97;;;9.18;64.48
85304;BME280;75708;47.930;13.782;2024-03-23T05:02:59;95378.97;;;9.09;65.01
85304;BME280;75708;47.930;13.782;2024-03-23T05:05:25;95373.16;;;9.12;64.06
85304;BME280;75708;47.930;13.782;2024-03-23T05:07:50;95351.91;;;9.22;64.70
85304;BME280;75708;47.930;13.782;2024-03-23T05:10:16;95351.84;;;9.12;65.17
85304;BME280;75708;47.930;13.782;2024-03-23T05:12:42;95364.09;;;9.13;64.94
85304;BME280;75708;47.930;13.782;2024-03-23T05:15:09;95364.91;;;9.14;65.32
85304;BME280;75708;47.930;13.782;2024-03-23T05:17:35;95359.03;;;9.12;64.21
85304;BME280;75708;47.930;13.782;2024-03-23T05:20:01;95364.13;;;9.18;65.05
85304;BME280;75708;47.930;13.782;2024-03-23T05:22:27;95351.94;;;9.27;63.94
85304;BME280;75708;47.930;13.782;2024-03-23T05:24:53;95349.19;;;9.17;64.16
85304;BME280;75708;47.930;13.782;2024-03-23T05:27:19;95355.50;;;9.01;65.40
85304;BME280;75708;47.930;13.782;2024-03-23T05:29:45;95352.50;;;8.92;65.80
85304;BME280;75708;47.930;13.782;2024-03-23T05:32:10;95365.91;;;9.07;64.79
85304;BME280;75708;47.930;13.782;2024-03-23T05:34:36;95340.06;;;9.55;62.36
85304;BME280;75708;47.930;13.782;2024-03-23T05:37:01;95341.72;;;9.66;62.11
85304;BME280;75708;47.930;13.782;2024-03-23T05:39:28;95337.81;;;9.89;61.81
85304;BME280;75708;47.930;13.782;2024-03-23T05:41:54;95324.25;;;10.01;61.45
85304;BME280;75708;47.930;13.782;2024-03-23T05:44:20;95323.22;;;10.17;61.20
85304;BME280;75708;47.930;13.782;2024-03-23T05:46:45;95318.97;;;10.26;61.22
85304;BME280;75708;47.930;13.782;2024-03-23T05:49:15;95321.91;;;10.30;61.16
85304;BME280;75708;47.930;13.782;2024-03-23T05:51:41;95328.31;;;10.24;62.70
85304;BME280;75708;47.930;13.782;2024-03-23T05:54:07;95331.78;;;10.39;62.14
85304;BME280;75708;47.930;13.782;2024-03-23T05:56:33;95323.28;;;10.52;60.63
85304;BME280;75708;47.930;13.782;2024-03-23T05:58:59;95326.47;;;10.44;61.13
85304;BME280;75708;47.930;13.782;2024-03-23T06:01:24;95321.38;;;10.28;61.18
85304;BME280;75708;47.930;13.782;2024-03-23T06:03:54;95319.78;;;10.32;61.22
85304;BME280;75708;47.930;13.782;2024-03-23T06:06:20;95311.78;;;10.52;60.68
85304;BME280;75708;47.930;13.782;2024-03-23T06:08:46;95305.91;;;10.60;59.80
85304;BME280;75708;47.930;13.782;2024-03-23T06:11:11;95303.78;;;10.77;59.66
85304;BME280;75708;47.930;13.782;2024-03-23T06:13:37;95290.69;;;10.66;60.38
85304;BME280;75708;47.930;13.782;2024-03-23T06:16:03;95286.16;;;10.81;59.58
85304;BME280;75708;47.930;13.782;2024-03-23T06:18:29;95285.84;;;11.03;59.66
85304;BME280;75708;47.930;13.782;2024-03-23T06:20:55;95292.22;;;11.12;58.88
85304;BME280;75708;47.930;13.782;2024-03-23T06:23:20;95285.16;;;11.47;58.19
85304;BME280;75708;47.930;13.782;2024-03-23T06:25:47;95280.22;;;11.84;56.78
85304;BME280;75708;47.930;13.782;2024-03-23T06:28:12;95286.56;;;12.03;57.12
85304;BME280;75708;47.930;13.782;2024-03-23T06:30:39;95265.06;;;12.14;55.98
85304;BME280;75708;47.930;13.782;2024-03-23T06:33:05;95257.16;;;12.32;54.27
85304;BME280;75708;47.930;13.782;2024-03-23T06:35:31;95276.66;;;12.72;52.22
85304;BME280;75708;47.930;13.782;2024-03-23T06:37:57;95277.69;;;12.76;52.29
85304;BME280;75708;47.930;13.782;2024-03-23T06:40:23;95264.53;;;12.79;52.44
85304;BME280;75708;47.930;13.782;2024-03-23T06:42:49;95255.88;;;12.59;53.45
85304;BME280;75708;47.930;13.782;2024-03-23T06:45:16;95253.63;;;12.71;53.53
85304;BME280;75708;47.930;13.782;2024-03-23T06:47:42;95254.72;;;12.70;52.05
85304;BME280;75708;47.930;13.782;2024-03-23T06:50:08;95250.78;;;12.91;52.38
85304;BME280;75708;47.930;13.782;2024-03-23T06:52:36;95231.28;;;13.09;51.93
85304;BME280;75708;47.930;13.782;2024-03-23T06:55:02;95240.81;;;13.21;51.53
85304;BME280;75708;47.930;13.782;2024-03-23T06:57:30;95237.81;;;13.27;49.99
85304;BME280;75708;47.930;13.782;2024-03-23T06:59:55;95229.00;;;13.22;50.63
85304;BME280;75708;47.930;13.782;2024-03-23T07:02:22;95229.19;;;13.30;49.84
85304;BME280;75708;47.930;13.782;2024-03-23T07:04:48;95224.28;;;13.13;49.97
85304;BME280;75708;47.930;13.782;2024-03-23T07:07:13;95224.97;;;13.24;49.71
85304;BME280;75708;47.930;13.782;2024-03-23T07:09:39;95219.94;;;13.41;49.44
85304;BME280;75708;47.930;13.782;2024-03-23T07:12:05;95221.59;;;13.37;49.14
85304;BME280;75708;47.930;13.782;2024-03-23T07:14:32;95225.34;;;13.60;50.03
85304;BME280;75708;47.930;13.782;2024-03-23T07:16:58;95205.19;;;13.63;49.78
85304;BME280;75708;47.930;13.782;2024-03-23T07:19:24;95207.66;;;13.78;49.19
85304;BME280;75708;47.930;13.782;2024-03-23T07:21:50;95215.84;;;13.68;49.09
85304;BME280;75708;47.930;13.782;2024-03-23T07:24:16;95233.38;;;13.60;49.20
85304;BME280;75708;47.930;13.782;2024-03-23T07:26:41;95212.88;;;13.69;49.74
85304;BME280;75708;47.930;13.782;2024-03-23T07:29:07;95194.66;;;14.04;48.02
85304;BME280;75708;47.930;13.782;2024-03-23T07:31:33;95201.78;;;14.13;48.14
85304;BME280;75708;47.930;13.782;2024-03-23T07:33:59;95176.19;;;14.67;47.63
85304;BME280;75708;47.930;13.782;2024-03-23T07:36:24;95185.84;;;14.68;46.44
85304;BME280;75708;47.930;13.782;2024-03-23T07:38:50;95188.31;;;14.64;47.24
85304;BME280;75708;47.930;13.782;2024-03-23T07:41:18;95175.53;;;15.02;46.95
85304;BME280;75708;47.930;13.782;2024-03-23T07:43:44;95176.31;;;15.44;45.47
85304;BME280;75708;47.930;13.782;2024-03-23T07:46:10;95178.38;;;15.74;43.11
85304;BME280;75708;47.930;13.782;2024-03-23T07:48:38;95173.38;;;15.82;44.68
85304;BME280;75708;47.930;13.782;2024-03-23T07:51:10;95162.31;;;15.83;42.89
85304;BME280;75708;47.930;13.782;2024-03-23T07:53:37;95168.66;;;15.87;43.49
85304;BME280;75708;47.930;13.782;2024-03-23T07:56:10;95153.78;;;16.56;42.13
85304;BME280;75708;47.930;13.782;2024-03-23T07:58:36;95144.75;;;17.14;38.95
85304;BME280;75708;47.930;13.782;2024-03-23T08:01:10;95144.97;;;17.44;38.95
85304;BME280;75708;47.930;13.782;2024-03-23T08:03:37;95143.63;;;17.24;39.85
85304;BME280;75708;47.930;13.782;2024-03-23T08:06:13;95139.19;;;17.76;39.01
85304;BME280;75708;47.930;13.782;2024-03-23T08:08:40;95128.84;;;17.87;38.75
85304;BME280;75708;47.930;13.782;2024-03-23T08:11:06;95107.69;;;18.06;37.46
85304;BME280;75708;47.930;13.782;2024-03-23T08:13:33;95113.06;;;18.40;37.79
85304;BME280;75708;47.930;13.782;2024-03-23T08:16:00;95113.63;;;18.81;35.68
85304;BME280;75708;47.930;13.782;2024-03-23T08:18:26;95103.28;;;19.12;37.13
85304;BME280;75708;47.930;13.782;2024-03-23T08:20:59;95096.97;;;19.29;34.11
85304;BME280;75708;47.930;13.782;2024-03-23T08:23:26;95106.47;;;19.14;35.96
85304;BME280;75708;47.930;13.782;2024-03-23T08:25:57;95075.94;;;19.34;38.53
85304;BME280;75708;47.930;13.782;2024-03-23T08:28:24;95050.34;;;19.52;37.04
85304;BME280;75708;47.930;13.782;2024-03-23T08:30:49;95071.53;;;19.92;36.25
85304;BME280;75708;47.930;13.782;2024-03-23T08:33:16;95063.88;;;20.27;32.78
85304;BME280;75708;47.930;13.782;2024-03-23T08:35:42;95048.97;;;20.78;31.16
85304;BME280;75708;47.930;13.782;2024-03-23T08:38:07;95045.69;;;20.85;33.11
85304;BME280;75708;47.930;13.782;2024-03-23T08:40:33;95047.72;;;20.88;32.77
85304;BME280;75708;47.930;13.782;2024-03-23T08:42:59;95040.94;;;20.82;31.38
85304;BME280;75708;47.930;13.782;2024-03-23T08:45:25;95024.31;;;21.08;33.25
85304;BME280;75708;47.930;13.782;2024-03-23T08:47:51;95020.81;;;21.07;31.11
85304;BME280;75708;47.930;13.782;2024-03-23T08:50:17;95022.06;;;20.97;32.00
85304;BME280;75708;47.930;13.782;2024-03-23T08:52:44;95013.66;;;21.39;31.02
85304;BME280;75708;47.930;13.782;2024-03-23T08:55:09;95025.63;;;21.62;31.05
85304;BME280;75708;47.930;13.782;2024-03-23T08:57:35;95017.09;;;21.92;29.56
85304;BME280;75708;47.930;13.782;2024-03-23T09:00:02;95007.44;;;22.50;29.29
85304;BME280;75708;47.930;13.782;2024-03-23T09:02:28;95015.16;;;23.81;25.92
85304;BME280;75708;47.930;13.782;2024-03-23T09:04:53;95022.91;;;23.79;27.27
85304;BME280;75708;47.930;13.782;2024-03-23T09:07:19;95021.03;;;24.63;25.06
85304;BME280;75708;47.930;13.782;2024-03-23T09:09:45;95009.31;;;24.86;26.26
85304;BME280;75708;47.930;13.782;2024-03-23T09:12:11;95003.41;;;25.85;22.07
85304;BME280;75708;47.930;13.782;2024-03-23T09:14:37;95009.84;;;26.04;22.14
85304;BME280;75708;47.930;13.782;2024-03-23T09:17:03;95008.66;;;25.68;23.17
85304;BME280;75708;47.930;13.782;2024-03-23T09:19:29;95006.22;;;25.93;26.24
85304;BME280;75708;47.930;13.782;2024-03-23T09:21:55;95027.69;;;25.61;25.15
85304;BME280;75708;47.930;13.782;2024-03-23T09:24:22;95013.16;;;25.04;26.45
85304;BME280;75708;47.930;13.782;2024-03-23T09:26:48;95007.47;;;24.44;25.68
85304;BME280;75708;47.930;13.782;2024-03-23T09:29:14;95010.53;;;25.37;25.83
85304;BME280;75708;47.930;13.782;2024-03-23T09:31:40;95012.06;;;25.08;25.77
85304;BME280;75708;47.930;13.782;2024-03-23T09:34:06;95023.91;;;24.93;26.09
85304;BME280;75708;47.930;13.782;2024-03-23T09:36:32;95023.56;;;24.95;25.77
85304;BME280;75708;47.930;13.782;2024-03-23T09:38:57;95026.16;;;25.10;25.88
85304;BME280;75708;47.930;13.782;2024-03-23T09:41:23;95040.91;;;25.06;24.79
85304;BME280;75708;47.930;13.782;2024-03-23T09:43:52;95048.97;;;24.53;26.23
85304;BME280;75708;47.930;13.782;2024-03-23T09:46:19;95048.38;;;25.35;25.56
85304;BME280;75708;47.930;13.782;2024-03-23T09:48:46;95049.63;;;25.64;25.60
85304;BME280;75708;47.930;13.782;2024-03-23T09:51:12;95054.31;;;24.27;27.90
85304;BME280;75708;47.930;13.782;2024-03-23T09:53:39;95049.00;;;24.57;28.17
85304;BME280;75708;47.930;13.782;2024-03-23T09:56:05;95054.91;;;21.69;31.27
85304;BME280;75708;47.930;13.782;2024-03-23T09:58:32;95090.38;;;20.75;33.24
85304;BME280;75708;47.930;13.782;2024-03-23T10:01:04;95083.47;;;21.14;32.62
85304;BME280;75708;47.930;13.782;2024-03-23T10:03:30;95068.09;;;20.04;34.23
85304;BME280;75708;47.930;13.782;2024-03-23T10:06:03;95106.63;;;18.79;37.46
85304;BME280;75708;47.930;13.782;2024-03-23T10:08:30;95111.81;;;17.95;39.64
85304;BME280;75708;47.930;13.782;2024-03-23T10:10:56;95118.38;;;18.02;39.53
85304;BME280;75708;47.930;13.782;2024-03-23T10:13:28;95128.19;;;19.26;38.82
85304;BME280;75708;47.930;13.782;2024-03-23T10:15:58;95129.13;;;18.63;40.76
85304;BME280;75708;47.930;13.782;2024-03-23T10:18:25;95161.59;;;16.89;45.87
85304;BME280;75708;47.930;13.782;2024-03-23T10:21:14;95164.22;;;16.05;49.57
85304;BME280;75708;47.930;13.782;2024-03-23T10:23:40;95208.50;;;15.22;52.39
85304;BME280;75708;47.930;13.782;2024-03-23T10:26:24;95207.44;;;14.63;54.00
85304;BME280;75708;47.930;13.782;2024-03-23T10:28:57;95241.03;;;13.72;58.48
85304;BME280;75708;47.930;13.782;2024-03-23T10:31:26;95260.19;;;13.12;61.18
85304;BME280;75708;47.930;13.782;2024-03-23T10:33:51;95283.63;;;12.73;62.18
85304;BME280;75708;47.930;13.782;2024-03-23T10:36:20;95276.63;;;12.43;62.40
85304;BME280;75708;47.930;13.782;2024-03-23T10:38:46;95321.56;;;12.12;62.84
85304;BME280;75708;47.930;13.782;2024-03-23T10:41:13;95301.91;;;11.83;62.89
85304;BME280;75708;47.930;13.782;2024-03-23T10:43:39;95314.75;;;11.86;61.08
85304;BME280;75708;47.930;13.782;2024-03-23T10:46:05;95294.00;;;11.47;62.35
85304;BME280;75708;47.930;13.782;2024-03-23T10:48:32;95292.22;;;11.22;62.25
85304;BME280;75708;47.930;13.782;2024-03-23T10:50:58;95292.25;;;11.07;61.66
85304;BME280;75708;47.930;13.782;2024-03-23T10:53:28;95313.66;;;10.97;62.37
85304;BME280;75708;47.930;13.782;2024-03-23T10:55:56;95300.03;;;10.88;61.23
85304;BME280;75708;47.930;13.782;2024-03-23T10:58:28;95321.38;;;10.93;62.35
85304;BME280;75708;47.930;13.782;2024-03-23T11:00:55;95323.81;;;10.80;62.94
85304;BME280;75708;47.930;13.782;2024-03-23T11:03:31;95341.97;;;10.73;63.16
85304;BME280;75708;47.930;13.782;2024-03-23T11:05:59;95357.16;;;10.47;64.57
85304;BME280;75708;47.930;13.782;2024-03-23T11:08:30;95343.28;;;10.40;64.13
85304;BME280;75708;47.930;13.782;2024-03-23T11:11:28;95358.25;;;10.36;64.83
85304;BME280;75708;47.930;13.782;2024-03-23T11:13:57;95372.81;;;10.08;66.26
85304;BME280;75708;47.930;13.782;2024-03-23T11:16:27;95367.75;;;10.06;66.35
85304;BME280;75708;47.930;13.782;2024-03-23T11:19:33;95377.31;;;9.97;67.14
85304;BME280;75708;47.930;13.782;2024-03-23T11:22:01;95409.06;;;9.99;67.06
85304;BME280;75708;47.930;13.782;2024-03-23T11:24:27;95404.50;;;9.89;68.15
85304;BME280;75708;47.930;13.782;2024-03-23T11:26:53;95393.53;;;9.80;68.20
85304;BME280;75708;47.930;13.782;2024-03-23T11:29:20;95404.69;;;9.77;69.35
85304;BME280;75708;47.930;13.782;2024-03-23T11:31:52;95412.63;;;9.62;69.18
85304;BME280;75708;47.930;13.782;2024-03-23T11:34:19;95402.66;;;9.42;71.16
85304;BME280;75708;47.930;13.782;2024-03-23T11:36:46;95400.53;;;9.44;69.51
85304;BME280;75708;47.930;13.782;2024-03-23T11:39:18;95413.31;;;9.42;69.72
85304;BME280;75708;47.930;13.782;2024-03-23T11:41:48;95420.84;;;9.14;69.39
85304;BME280;75708;47.930;13.782;2024-03-23T11:44:21;95417.56;;;9.01;69.91
85304;BME280;75708;47.930;13.782;2024-03-23T11:46:51;95423.34;;;8.93;69.81
85304;BME280;75708;47.930;13.782;2024-03-23T11:49:27;95429.72;;;8.87;70.87
85304;BME280;75708;47.930;13.782;2024-03-23T11:51:54;95416.59;;;8.81;71.69
85304;BME280;75708;47.930;13.782;2024-03-23T11:54:21;95413.38;;;8.79;72.20
85304;BME280;75708;47.930;13.782;2024-03-23T11:57:01;95440.00;;;8.79;73.22
85304;BME280;75708;47.930;13.782;2024-03-23T11:59:37;95435.41;;;8.69;72.84
85304;BME280;75708;47.930;13.782;2024-03-23T12:02:12;95448.81;;;8.52;74.72
85304;BME280;75708;47.930;13.782;2024-03-23T12:04:42;95451.16;;;8.76;70.34
85304;BME280;75708;47.930;13.782;2024-03-23T12:07:17;95463.63;;;8.43;72.65
85304;BME280;75708;47.930;13.782;2024-03-23T12:10:07;95466.41;;;8.32;72.68
85304;BME280;75708;47.930;13.782;2024-03-23T12:12:34;95473.16;;;8.17;75.93
85304;BME280;75708;47.930;13.782;2024-03-23T12:15:07;95495.41;;;8.11;76.90
85304;BME280;75708;47.930;13.782;2024-03-23T12:17:34;95498.44;;;7.98;76.40
85304;BME280;75708;47.930;13.782;2024-03-23T12:20:01;95504.19;;;7.90;77.16
85304;BME280;75708;47.930;13.782;2024-03-23T12:22:27;95504.09;;;7.85;75.87
85304;BME280;75708;47.930;13.782;2024-03-23T12:24:53;95529.19;;;7.72;78.33
85304;BME280;75708;47.930;13.782;2024-03-23T12:27:18;95525.00;;;7.60;77.40
85304;BME280;75708;47.930;13.782;2024-03-23T12:29:44;95538.06;;;7.44;79.37
85304;BME280;75708;47.930;13.782;2024-03-23T12:32:14;95529.44;;;7.54;78.48
85304;BME280;75708;47.930;13.782;2024-03-23T12:34:41;95530.91;;;7.28;82.09
85304;BME280;75708;47.930;13.782;2024-03-23T12:37:07;95548.28;;;7.36;82.67
85304;BME280;75708;47.930;13.782;2024-03-23T12:39:33;95554.06;;;7.49;81.26
85304;BME280;75708;47.930;13.782;2024-03-23T12:42:01;95549.09;;;7.36;82.33
85304;BME280;75708;47.930;13.782;2024-03-23T12:44:28;95562.63;;;7.35;81.65
85304;BME280;75708;47.930;13.782;2024-03-23T12:46:54;95549.72;;;7.27;78.10
85304;BME280;75708;47.930;13.782;2024-03-23T12:49:19;95550.84;;;7.14;81.51
85304;BME280;75708;47.930;13.782;2024-03-23T12:51:54;95563.19;;;7.20;81.96
85304;BME280;75708;47.930;13.782;2024-03-23T12:54:21;95558.91;;;7.19;83.07
85304;BME280;75708;47.930;13.782;2024-03-23T12:56:47;95570.97;;;7.10;79.95
85304;BME280;75708;47.930;13.782;2024-03-23T12:59:13;95575.84;;;7.01;82.24
85304;BME280;75708;47.930;13.782;2024-03-23T13:01:39;95572.47;;;6.77;81.31
85304;BME280;75708;47.930;13.782;2024-03-23T13:04:06;95586.94;;;6.70;82.54
85304;BME280;75708;47.930;13.782;2024-03-23T13:06:32;95598.28;;;6.54;80.35
85304;BME280;75708;47.930;13.782;2024-03-23T13:09:03;95600.13;;;6.53;83.90
85304;BME280;75708;47.930;13.782;2024-03-23T13:11:30;95611.13;;;6.45;80.75
85304;BME280;75708;47.930;13.782;2024-03-23T13:13:56;95627.16;;;6.38;82.65
85304;BME280;75708;47.930;13.782;2024-03-23T13:16:21;95611.94;;;6.34;81.11
85304;BME280;75708;47.930;13.782;2024-03-23T13:18:47;95605.00;;;6.45;81.63
85304;BME280;75708;47.930;13.782;2024-03-23T13:21:13;95607.34;;;6.41;80.43
85304;BME280;75708;47.930;13.782;2024-03-23T13:23:39;95601.53;;;6.56;80.17
85304;BME280;75708;47.930;13.782;2024-03-23T13:26:07;95614.78;;;6.56;77.97
85304;BME280;75708;47.930;13.782;2024-03-23T13:28:33;95613.31;;;6.48;80.11
85304;BME280;75708;47.930;13.782;2024-03-23T13:31:01;95635.00;;;6.33;79.81
85304;BME280;75708;47.930;13.782;2024-03-23T13:33:30;95661.41;;;6.52;78.90
85304;BME280;75708;47.930;13.782;2024-03-23T13:35:59;95621.16;;;6.43;78.82
85304;BME280;75708;47.930;13.782;2024-03-23T13:38:25;95632.94;;;6.35;74.70
85304;BME280;75708;47.930;13.782;2024-03-23T13:43:17;95607.81;;;6.26;74.80
85304;BME280;75708;47.930;13.782;2024-03-23T13:45:42;95610.34;;;6.21;78.46
85304;BME280;75708;47.930;13.782;2024-03-23T13:48:08;95614.94;;;6.37;76.19